sensor_id;sensor_type;location;lat;lon;timestamp;temperature;humidity
49441;DHT22;35317;51.978;6.296;2023-02-01T00:02:48;5.60;99.90
49441;DHT22;35317;51.978;6.296;2023-02-01T00:07:48;5.60;99.90
49441;DHT22;35317;51.978;6.296;2023-02-01T00:12:49;5.70;99.90
49441;DHT22;35317;51.978;6.296;2023-02-01T00:17:54;5.70;99.90
49441;DHT22;35317;51.978;6.296;2023-02-01T00:22:55;5.80;99.90
49441;DHT22;35317;51.978;6.296;2023-02-01T00:27:56;5.80;99.90
49441;DHT22;35317;51.978;6.296;2023-02-01T00:32:59;5.80;99.90
49441;DHT22;35317;51.978;6.296;2023-02-01T00:37:59;5.90;99.90
49441;DHT22;35317;51.978;6.296;2023-02-01T00:43:00;5.90;99.90
49441;DHT22;35317;51.978;6.296;2023-02-01T00:48:01;5.90;99.90
49441;DHT22;35317;51.978;6.296;2023-02-01T00:53:02;5.90;99.90
49441;DHT22;35317;51.978;6.296;2023-02-01T00:58:03;5.90;99.90
49441;DHT22;35317;51.978;6.296;2023-02-01T01:03:06;5.90;99.90
49441;DHT22;35317;51.978;6.296;2023-02-01T01:08:17;5.90;99.90
49441;DHT22;35317;51.978;6.296;2023-02-01T01:13:18;6.00;99.90
49441;DHT22;35317;51.978;6.296;2023-02-01T01:18:19;6.00;99.70
49441;DHT22;35317;51.978;6.296;2023-02-01T01:23:20;6.00;99.50
49441;DHT22;35317;51.978;6.296;2023-02-01T01:28:21;6.10;99.40
49441;DHT22;35317;51.978;6.296;2023-02-01T01:33:21;6.10;99.40
49441;DHT22;35317;51.978;6.296;2023-02-01T01:38:22;6.00;99.50
49441;DHT22;35317;51.978;6.296;2023-02-01T01:43:23;6.00;99.70
49441;DHT22;35317;51.978;6.296;2023-02-01T01:48:29;5.90;99.80
49441;DHT22;35317;51.978;6.296;2023-02-01T01:53:34;5.90;99.90
49441;DHT22;35317;51.978;6.296;2023-02-01T01:58:38;5.90;99.90
49441;DHT22;35317;51.978;6.296;2023-02-01T02:03:43;5.80;99.90
49441;DHT22;35317;51.978;6.296;2023-02-01T02:08:45;5.80;99.90
49441;DHT22;35317;51.978;6.296;2023-02-01T02:13:48;5.70;99.90
49441;DHT22;35317;51.978;6.296;2023-02-01T02:19:17;5.60;99.90
49441;DHT22;35317;51.978;6.296;2023-02-01T02:30:35;5.70;99.90
49441;DHT22;35317;51.978;6.296;2023-02-01T02:41:36;5.70;99.90
49441;DHT22;35317;51.978;6.296;2023-02-01T02:47:12;5.80;99.90
49441;DHT22;35317;51.978;6.296;2023-02-01T02:52:27;5.80;99.90
49441;DHT22;35317;51.978;6.296;2023-02-01T02:57:47;5.90;99.90
49441;DHT22;35317;51.978;6.296;2023-02-01T03:03:06;5.90;99.90
49441;DHT22;35317;51.978;6.296;2023-02-01T03:08:27;5.90;99.90
49441;DHT22;35317;51.978;6.296;2023-02-01T03:24:29;5.90;99.90
49441;DHT22;35317;51.978;6.296;2023-02-01T03:35:12;5.80;99.90
49441;DHT22;35317;51.978;6.296;2023-02-01T03:40:13;5.80;99.90
49441;DHT22;35317;51.978;6.296;2023-02-01T03:50:33;5.80;99.90
49441;DHT22;35317;51.978;6.296;2023-02-01T03:55:37;5.80;99.90
49441;DHT22;35317;51.978;6.296;2023-02-01T04:00:39;5.90;99.90
49441;DHT22;35317;51.978;6.296;2023-02-01T04:05:39;5.80;99.90
49441;DHT22;35317;51.978;6.296;2023-02-01T04:10:40;5.80;99.90
49441;DHT22;35317;51.978;6.296;2023-02-01T04:15:41;5.80;99.90
49441;DHT22;35317;51.978;6.296;2023-02-01T04:20:42;5.70;99.90
49441;DHT22;35317;51.978;6.296;2023-02-01T04:25:44;5.70;99.90
49441;DHT22;35317;51.978;6.296;2023-02-01T04:30:46;5.70;99.90
49441;DHT22;35317;51.978;6.296;2023-02-01T04:35:47;5.60;99.90
49441;DHT22;35317;51.978;6.296;2023-02-01T04:40:48;5.70;99.90
49441;DHT22;35317;51.978;6.296;2023-02-01T04:45:50;5.60;99.90
49441;DHT22;35317;51.978;6.296;2023-02-01T04:50:51;5.60;99.90
49441;DHT22;35317;51.978;6.296;2023-02-01T04:55:52;5.60;99.90
49441;DHT22;35317;51.978;6.296;2023-02-01T05:00:52;5.70;99.90
49441;DHT22;35317;51.978;6.296;2023-02-01T05:05:53;5.80;99.90
49441;DHT22;35317;51.978;6.296;2023-02-01T05:10:54;5.90;99.90
49441;DHT22;35317;51.978;6.296;2023-02-01T05:15:55;6.00;99.90
49441;DHT22;35317;51.978;6.296;2023-02-01T05:20:56;6.20;99.90
49441;DHT22;35317;51.978;6.296;2023-02-01T05:26:00;6.30;99.90
49441;DHT22;35317;51.978;6.296;2023-02-01T05:31:09;6.30;99.90
49441;DHT22;35317;51.978;6.296;2023-02-01T05:36:10;6.30;99.90
49441;DHT22;35317;51.978;6.296;2023-02-01T05:41:11;6.30;99.90
49441;DHT22;35317;51.978;6.296;2023-02-01T05:46:12;6.40;99.90
49441;DHT22;35317;51.978;6.296;2023-02-01T05:51:13;6.40;99.90
49441;DHT22;35317;51.978;6.296;2023-02-01T05:56:14;6.50;99.90
49441;DHT22;35317;51.978;6.296;2023-02-01T06:01:15;6.60;99.90
49441;DHT22;35317;51.978;6.296;2023-02-01T06:06:16;6.60;99.90
49441;DHT22;35317;51.978;6.296;2023-02-01T06:11:16;6.70;99.90
49441;DHT22;35317;51.978;6.296;2023-02-01T06:16:17;6.80;99.90
49441;DHT22;35317;51.978;6.296;2023-02-01T06:21:18;6.90;99.90
49441;DHT22;35317;51.978;6.296;2023-02-01T06:26:24;6.90;99.90
49441;DHT22;35317;51.978;6.296;2023-02-01T06:31:25;6.90;99.90
49441;DHT22;35317;51.978;6.296;2023-02-01T06:36:26;7.00;99.90
49441;DHT22;35317;51.978;6.296;2023-02-01T06:41:26;7.00;99.90
49441;DHT22;35317;51.978;6.296;2023-02-01T06:46:27;7.10;99.90
49441;DHT22;35317;51.978;6.296;2023-02-01T06:51:28;7.10;99.80
49441;DHT22;35317;51.978;6.296;2023-02-01T06:56:29;7.10;99.70
49441;DHT22;35317;51.978;6.296;2023-02-01T07:01:32;7.10;99.40
49441;DHT22;35317;51.978;6.296;2023-02-01T07:06:33;7.10;99.30
49441;DHT22;35317;51.978;6.296;2023-02-01T07:11:33;7.10;99.30
49441;DHT22;35317;51.978;6.296;2023-02-01T07:16:34;7.10;99.20
49441;DHT22;35317;51.978;6.296;2023-02-01T07:21:35;7.10;99.30
49441;DHT22;35317;51.978;6.296;2023-02-01T07:26:36;7.10;99.30
49441;DHT22;35317;51.978;6.296;2023-02-01T07:31:37;7.20;99.30
49441;DHT22;35317;51.978;6.296;2023-02-01T07:36:37;7.20;99.20
49441;DHT22;35317;51.978;6.296;2023-02-01T07:41:38;7.20;99.10
49441;DHT22;35317;51.978;6.296;2023-02-01T07:46:39;7.20;99.10
49441;DHT22;35317;51.978;6.296;2023-02-01T07:51:40;7.20;99.10
49441;DHT22;35317;51.978;6.296;2023-02-01T07:56:41;7.20;99.10
49441;DHT22;35317;51.978;6.296;2023-02-01T08:01:42;7.20;99.20
49441;DHT22;35317;51.978;6.296;2023-02-01T08:06:42;7.20;99.20
49441;DHT22;35317;51.978;6.296;2023-02-01T08:11:43;7.20;99.20
49441;DHT22;35317;51.978;6.296;2023-02-01T08:16:44;7.20;99.20
49441;DHT22;35317;51.978;6.296;2023-02-01T08:21:45;7.20;99.20
49441;DHT22;35317;51.978;6.296;2023-02-01T08:26:49;7.20;99.20
49441;DHT22;35317;51.978;6.296;2023-02-01T08:31:49;7.30;99.30
49441;DHT22;35317;51.978;6.296;2023-02-01T08:36:52;7.30;99.20
49441;DHT22;35317;51.978;6.296;2023-02-01T08:41:57;7.30;99.20
49441;DHT22;35317;51.978;6.296;2023-02-01T08:47:16;7.30;99.20
49441;DHT22;35317;51.978;6.296;2023-02-01T08:52:17;7.40;99.20
49441;DHT22;35317;51.978;6.296;2023-02-01T08:57:18;7.60;99.10
49441;DHT22;35317;51.978;6.296;2023-02-01T09:02:19;7.70;98.80
49441;DHT22;35317;51.978;6.296;2023-02-01T09:07:21;7.70;98.60
49441;DHT22;35317;51.978;6.296;2023-02-01T09:12:22;7.80;98.50
49441;DHT22;35317;51.978;6.296;2023-02-01T09:17:23;7.90;98.40
49441;DHT22;35317;51.978;6.296;2023-02-01T09:22:24;7.90;98.10
49441;DHT22;35317;51.978;6.296;2023-02-01T09:27:25;7.90;97.90
49441;DHT22;35317;51.978;6.296;2023-02-01T09:32:25;8.00;97.80
49441;DHT22;35317;51.978;6.296;2023-02-01T09:37:26;8.00;97.80
49441;DHT22;35317;51.978;6.296;2023-02-01T09:48:23;8.10;97.60
49441;DHT22;35317;51.978;6.296;2023-02-01T09:53:38;8.20;97.60
49441;DHT22;35317;51.978;6.296;2023-02-01T09:58:47;8.20;97.50
49441;DHT22;35317;51.978;6.296;2023-02-01T10:03:48;8.30;97.30
49441;DHT22;35317;51.978;6.296;2023-02-01T10:09:08;8.30;97.30
49441;DHT22;35317;51.978;6.296;2023-02-01T10:25:56;8.40;97.20
49441;DHT22;35317;51.978;6.296;2023-02-01T10:31:08;8.40;96.90
49441;DHT22;35317;51.978;6.296;2023-02-01T10:41:49;8.40;96.80
49441;DHT22;35317;51.978;6.296;2023-02-01T10:46:50;8.40;96.70
49441;DHT22;35317;51.978;6.296;2023-02-01T10:51:55;8.40;97.10
49441;DHT22;35317;51.978;6.296;2023-02-01T10:56:58;8.30;97.90
49441;DHT22;35317;51.978;6.296;2023-02-01T11:02:11;8.20;98.80
49441;DHT22;35317;51.978;6.296;2023-02-01T11:07:22;8.10;99.20
49441;DHT22;35317;51.978;6.296;2023-02-01T11:12:36;8.00;99.80
49441;DHT22;35317;51.978;6.296;2023-02-01T11:17:43;7.80;99.90
49441;DHT22;35317;51.978;6.296;2023-02-01T11:22:52;7.70;99.90
49441;DHT22;35317;51.978;6.296;2023-02-01T11:27:55;7.50;99.90
49441;DHT22;35317;51.978;6.296;2023-02-01T11:32:57;7.50;99.90
49441;DHT22;35317;51.978;6.296;2023-02-01T11:37:59;7.50;99.90
49441;DHT22;35317;51.978;6.296;2023-02-01T11:43:27;7.60;99.90
49441;DHT22;35317;51.978;6.296;2023-02-01T11:48:31;7.60;99.90
49441;DHT22;35317;51.978;6.296;2023-02-01T11:58:58;7.70;99.90
49441;DHT22;35317;51.978;6.296;2023-02-01T12:09:46;7.70;99.90
49441;DHT22;35317;51.978;6.296;2023-02-01T12:20:39;7.70;99.90
49441;DHT22;35317;51.978;6.296;2023-02-01T12:31:48;7.90;99.90
49441;DHT22;35317;51.978;6.296;2023-02-01T12:43:01;8.10;99.90
49441;DHT22;35317;51.978;6.296;2023-02-01T12:53:52;8.20;99.90
49441;DHT22;35317;51.978;6.296;2023-02-01T12:58:58;8.30;99.90
49441;DHT22;35317;51.978;6.296;2023-02-01T13:04:23;8.30;99.90
49441;DHT22;35317;51.978;6.296;2023-02-01T13:09:52;8.30;99.90
49441;DHT22;35317;51.978;6.296;2023-02-01T13:15:17;8.40;99.90
49441;DHT22;35317;51.978;6.296;2023-02-01T13:20:37;8.40;99.90
49441;DHT22;35317;51.978;6.296;2023-02-01T13:42:17;8.40;99.90
49441;DHT22;35317;51.978;6.296;2023-02-01T13:52:44;8.50;99.70
49441;DHT22;35317;51.978;6.296;2023-02-01T13:57:46;8.40;99.60
49441;DHT22;35317;51.978;6.296;2023-02-01T14:23:43;8.50;98.90
49441;DHT22;35317;51.978;6.296;2023-02-01T14:28:52;8.60;98.80
49441;DHT22;35317;51.978;6.296;2023-02-01T14:34:01;8.50;98.70
49441;DHT22;35317;51.978;6.296;2023-02-01T14:39:04;8.60;98.50
49441;DHT22;35317;51.978;6.296;2023-02-01T14:49:06;8.60;98.30
49441;DHT22;35317;51.978;6.296;2023-02-01T14:54:12;8.60;98.30
49441;DHT22;35317;51.978;6.296;2023-02-01T14:59:15;8.60;98.40
49441;DHT22;35317;51.978;6.296;2023-02-01T15:04:18;8.60;98.50
49441;DHT22;35317;51.978;6.296;2023-02-01T15:14:33;8.60;99.00
49441;DHT22;35317;51.978;6.296;2023-02-01T15:19:35;8.50;98.90
49441;DHT22;35317;51.978;6.296;2023-02-01T15:24:36;8.60;98.90
49441;DHT22;35317;51.978;6.296;2023-02-01T15:29:37;8.60;98.70
49441;DHT22;35317;51.978;6.296;2023-02-01T15:34:46;8.60;98.80
49441;DHT22;35317;51.978;6.296;2023-02-01T15:45:18;8.40;99.90
49441;DHT22;35317;51.978;6.296;2023-02-01T15:50:21;8.20;99.90
49441;DHT22;35317;51.978;6.296;2023-02-01T16:00:44;7.80;99.90
49441;DHT22;35317;51.978;6.296;2023-02-01T16:05:55;7.50;99.90
49441;DHT22;35317;51.978;6.296;2023-02-01T16:11:20;7.30;99.90
49441;DHT22;35317;51.978;6.296;2023-02-01T16:16:31;7.10;99.90
49441;DHT22;35317;51.978;6.296;2023-02-01T16:21:32;6.90;99.90
49441;DHT22;35317;51.978;6.296;2023-02-01T16:26:34;6.70;99.90
49441;DHT22;35317;51.978;6.296;2023-02-01T16:31:38;6.60;99.90
49441;DHT22;35317;51.978;6.296;2023-02-01T16:36:39;6.60;99.90
49441;DHT22;35317;51.978;6.296;2023-02-01T16:41:40;6.50;99.90
49441;DHT22;35317;51.978;6.296;2023-02-01T16:46:43;6.50;99.90
49441;DHT22;35317;51.978;6.296;2023-02-01T16:51:46;6.50;99.90
49441;DHT22;35317;51.978;6.296;2023-02-01T16:56:49;6.50;99.90
49441;DHT22;35317;51.978;6.296;2023-02-01T17:01:50;6.50;99.90
49441;DHT22;35317;51.978;6.296;2023-02-01T17:06:51;6.60;99.90
49441;DHT22;35317;51.978;6.296;2023-02-01T17:11:51;6.60;99.90
49441;DHT22;35317;51.978;6.296;2023-02-01T17:16:52;6.70;99.90
49441;DHT22;35317;51.978;6.296;2023-02-01T17:21:55;6.80;99.90
49441;DHT22;35317;51.978;6.296;2023-02-01T17:26:58;6.80;99.90
49441;DHT22;35317;51.978;6.296;2023-02-01T17:31:59;6.80;99.90
49441;DHT22;35317;51.978;6.296;2023-02-01T17:37:00;6.80;99.90
49441;DHT22;35317;51.978;6.296;2023-02-01T17:42:02;6.70;99.90
49441;DHT22;35317;51.978;6.296;2023-02-01T17:47:04;6.70;99.90
49441;DHT22;35317;51.978;6.296;2023-02-01T17:52:05;6.60;99.90
49441;DHT22;35317;51.978;6.296;2023-02-01T17:57:13;6.60;99.90
49441;DHT22;35317;51.978;6.296;2023-02-01T18:02:18;6.50;99.90
49441;DHT22;35317;51.978;6.296;2023-02-01T18:07:21;6.50;99.90
49441;DHT22;35317;51.978;6.296;2023-02-01T18:12:22;6.50;99.90
49441;DHT22;35317;51.978;6.296;2023-02-01T18:17:24;6.50;99.90
49441;DHT22;35317;51.978;6.296;2023-02-01T18:22:25;6.60;99.90
49441;DHT22;35317;51.978;6.296;2023-02-01T18:27:26;6.60;99.90
49441;DHT22;35317;51.978;6.296;2023-02-01T18:32:29;6.70;99.90
49441;DHT22;35317;51.978;6.296;2023-02-01T18:37:29;6.90;99.90
49441;DHT22;35317;51.978;6.296;2023-02-01T18:42:30;7.00;99.90
49441;DHT22;35317;51.978;6.296;2023-02-01T18:47:31;7.10;99.90
49441;DHT22;35317;51.978;6.296;2023-02-01T18:52:31;7.20;99.90
49441;DHT22;35317;51.978;6.296;2023-02-01T18:57:32;7.10;99.90
49441;DHT22;35317;51.978;6.296;2023-02-01T19:02:33;7.00;99.90
49441;DHT22;35317;51.978;6.296;2023-02-01T19:07:34;7.00;99.90
49441;DHT22;35317;51.978;6.296;2023-02-01T19:12:36;6.90;99.90
49441;DHT22;35317;51.978;6.296;2023-02-01T19:17:39;7.00;99.90
49441;DHT22;35317;51.978;6.296;2023-02-01T19:22:40;7.00;99.90
49441;DHT22;35317;51.978;6.296;2023-02-01T19:27:41;7.00;99.90
49441;DHT22;35317;51.978;6.296;2023-02-01T19:32:42;7.00;99.90
49441;DHT22;35317;51.978;6.296;2023-02-01T19:37:43;7.10;99.90
49441;DHT22;35317;51.978;6.296;2023-02-01T19:42:44;7.00;99.90
49441;DHT22;35317;51.978;6.296;2023-02-01T19:47:46;7.00;99.90
49441;DHT22;35317;51.978;6.296;2023-02-01T19:52:47;7.00;99.90
49441;DHT22;35317;51.978;6.296;2023-02-01T19:57:48;7.00;99.90
49441;DHT22;35317;51.978;6.296;2023-02-01T20:02:49;7.10;99.90
49441;DHT22;35317;51.978;6.296;2023-02-01T20:07:49;7.10;99.90
49441;DHT22;35317;51.978;6.296;2023-02-01T20:12:50;7.10;99.90
49441;DHT22;35317;51.978;6.296;2023-02-01T20:17:51;7.10;99.90
49441;DHT22;35317;51.978;6.296;2023-02-01T20:22:52;7.00;99.90
49441;DHT22;35317;51.978;6.296;2023-02-01T20:27:57;6.80;99.90
49441;DHT22;35317;51.978;6.296;2023-02-01T20:32:58;6.60;99.90
49441;DHT22;35317;51.978;6.296;2023-02-01T20:37:59;6.40;99.90
49441;DHT22;35317;51.978;6.296;2023-02-01T20:43:01;6.30;99.90
49441;DHT22;35317;51.978;6.296;2023-02-01T20:48:01;6.20;99.90
49441;DHT22;35317;51.978;6.296;2023-02-01T20:53:03;6.10;99.90
49441;DHT22;35317;51.978;6.296;2023-02-01T20:58:04;6.10;99.90
49441;DHT22;35317;51.978;6.296;2023-02-01T21:03:05;6.10;99.90
49441;DHT22;35317;51.978;6.296;2023-02-01T21:08:07;6.10;99.90
49441;DHT22;35317;51.978;6.296;2023-02-01T21:13:10;6.00;99.90
49441;DHT22;35317;51.978;6.296;2023-02-01T21:18:10;6.10;99.90
49441;DHT22;35317;51.978;6.296;2023-02-01T21:23:13;6.10;99.90
49441;DHT22;35317;51.978;6.296;2023-02-01T21:28:15;6.20;99.90
49441;DHT22;35317;51.978;6.296;2023-02-01T21:33:15;6.20;99.90
49441;DHT22;35317;51.978;6.296;2023-02-01T21:38:16;6.20;99.90
49441;DHT22;35317;51.978;6.296;2023-02-01T21:43:17;6.20;99.90
49441;DHT22;35317;51.978;6.296;2023-02-01T21:48:17;6.10;99.90
49441;DHT22;35317;51.978;6.296;2023-02-01T21:53:18;6.10;99.90
49441;DHT22;35317;51.978;6.296;2023-02-01T21:58:19;6.10;99.90
49441;DHT22;35317;51.978;6.296;2023-02-01T22:03:20;6.10;99.90
49441;DHT22;35317;51.978;6.296;2023-02-01T22:08:20;6.10;99.90
49441;DHT22;35317;51.978;6.296;2023-02-01T22:13:21;6.10;99.90
49441;DHT22;35317;51.978;6.296;2023-02-01T22:18:22;6.00;99.90
49441;DHT22;35317;51.978;6.296;2023-02-01T22:23:23;6.00;99.90
49441;DHT22;35317;51.978;6.296;2023-02-01T22:28:27;6.00;99.90
49441;DHT22;35317;51.978;6.296;2023-02-01T22:33:28;6.00;99.90
49441;DHT22;35317;51.978;6.296;2023-02-01T22:38:30;6.10;99.90
49441;DHT22;35317;51.978;6.296;2023-02-01T22:43:35;6.10;99.90
49441;DHT22;35317;51.978;6.296;2023-02-01T22:48:37;6.10;99.90
49441;DHT22;35317;51.978;6.296;2023-02-01T22:53:38;6.20;99.90
49441;DHT22;35317;51.978;6.296;2023-02-01T22:58:39;6.10;99.90
49441;DHT22;35317;51.978;6.296;2023-02-01T23:03:40;6.20;99.90
49441;DHT22;35317;51.978;6.296;2023-02-01T23:08:41;6.10;99.90
49441;DHT22;35317;51.978;6.296;2023-02-01T23:13:41;6.10;99.90
49441;DHT22;35317;51.978;6.296;2023-02-01T23:18:42;6.10;99.90
49441;DHT22;35317;51.978;6.296;2023-02-01T23:23:51;6.20;99.90
49441;DHT22;35317;51.978;6.296;2023-02-01T23:28:54;6.30;99.90
49441;DHT22;35317;51.978;6.296;2023-02-01T23:33:57;6.30;99.90
49441;DHT22;35317;51.978;6.296;2023-02-01T23:38:59;6.50;99.90
49441;DHT22;35317;51.978;6.296;2023-02-01T23:43:59;6.50;99.90
49441;DHT22;35317;51.978;6.296;2023-02-01T23:49:02;6.70;99.90
49441;DHT22;35317;51.978;6.296;2023-02-01T23:54:06;6.80;99.90
49441;DHT22;35317;51.978;6.296;2023-02-01T23:59:17;6.90;99.90
